Chama, New Mexico
Current Conditions -  °F | °C
As of 11:15 AM on Thursday 29 Jan 2015 (Local Time) from KPSO Reporting Station
Overcast Overcast  
Wind Chill: 43°   Ceiling: 9000
Heat Index: 43°   Visibility: 10mi
Dew Point: 26°   Wind: 0mph
Humidity: 51%   Direction: NA
Pressure: 30.43"   Gusts: NA
Location:  36.9°N, 106.58°W
Report Text: KPSO 291815Z AUTO 00000KT 10SM OVC090 06/M03 A3043 RMK AO2 T00611035
Loading
Personal Weather Stations






























Interactive Weather Map New forecast layout! Learn more

10-Day Weather Forecast

Advertisements
Track Severe Weather on mobile